sensor_id;sensor_type;location;lat;lon;timestamp;P1;durP1;ratioP1;P2;durP2;ratioP2
11598;SDS011;5855;48.840;9.188;2024-02-26T00:00:37;2.35;;;2.15;;
11598;SDS011;5855;48.840;9.188;2024-02-26T00:03:04;1.77;;;1.67;;
11598;SDS011;5855;48.840;9.188;2024-02-26T00:05:32;2.17;;;1.95;;
11598;SDS011;5855;48.840;9.188;2024-02-26T00:07:59;4.00;;;2.80;;
11598;SDS011;5855;48.840;9.188;2024-02-26T00:10:26;3.58;;;2.55;;
11598;SDS011;5855;48.840;9.188;2024-02-26T00:12:56;3.33;;;1.85;;
11598;SDS011;5855;48.840;9.188;2024-02-26T00:15:22;1.98;;;1.83;;
11598;SDS011;5855;48.840;9.188;2024-02-26T00:17:50;2.28;;;1.98;;
11598;SDS011;5855;48.840;9.188;2024-02-26T00:20:16;2.05;;;1.80;;
11598;SDS011;5855;48.840;9.188;2024-02-26T00:22:45;2.10;;;1.70;;
11598;SDS011;5855;48.840;9.188;2024-02-26T00:25:14;2.30;;;2.08;;
11598;SDS011;5855;48.840;9.188;2024-02-26T00:27:41;2.00;;;1.65;;
11598;SDS011;5855;48.840;9.188;2024-02-26T00:30:09;2.00;;;1.80;;
11598;SDS011;5855;48.840;9.188;2024-02-26T00:32:37;2.78;;;1.80;;
11598;SDS011;5855;48.840;9.188;2024-02-26T00:35:04;2.50;;;1.90;;
11598;SDS011;5855;48.840;9.188;2024-02-26T00:37:31;2.05;;;1.65;;
11598;SDS011;5855;48.840;9.188;2024-02-26T00:40:00;2.17;;;1.95;;
11598;SDS011;5855;48.840;9.188;2024-02-26T00:42:27;1.95;;;1.60;;
11598;SDS011;5855;48.840;9.188;2024-02-26T00:44:53;1.75;;;1.50;;
11598;SDS011;5855;48.840;9.188;2024-02-26T00:47:20;1.70;;;1.60;;
11598;SDS011;5855;48.840;9.188;2024-02-26T00:49:47;2.10;;;1.60;;
11598;SDS011;5855;48.840;9.188;2024-02-26T00:52:14;2.00;;;1.80;;
11598;SDS011;5855;48.840;9.188;2024-02-26T00:54:40;1.88;;;1.63;;
11598;SDS011;5855;48.840;9.188;2024-02-26T00:57:09;2.35;;;1.98;;
11598;SDS011;5855;48.840;9.188;2024-02-26T00:59:36;2.88;;;1.83;;
11598;SDS011;5855;48.840;9.188;2024-02-26T01:02:03;2.95;;;2.05;;
11598;SDS011;5855;48.840;9.188;2024-02-26T01:04:31;2.17;;;1.88;;
11598;SDS011;5855;48.840;9.188;2024-02-26T01:06:59;4.30;;;1.90;;
11598;SDS011;5855;48.840;9.188;2024-02-26T01:09:26;1.90;;;1.80;;
11598;SDS011;5855;48.840;9.188;2024-02-26T01:11:52;3.47;;;2.20;;
11598;SDS011;5855;48.840;9.188;2024-02-26T01:14:21;2.30;;;2.00;;
11598;SDS011;5855;48.840;9.188;2024-02-26T01:16:48;2.90;;;1.80;;
11598;SDS011;5855;48.840;9.188;2024-02-26T01:19:14;4.70;;;3.05;;
11598;SDS011;5855;48.840;9.188;2024-02-26T01:21:41;4.00;;;3.20;;
11598;SDS011;5855;48.840;9.188;2024-02-26T01:24:08;3.38;;;2.70;;
11598;SDS011;5855;48.840;9.188;2024-02-26T01:26:35;2.65;;;2.40;;
11598;SDS011;5855;48.840;9.188;2024-02-26T01:29:03;3.05;;;2.50;;
11598;SDS011;5855;48.840;9.188;2024-02-26T01:31:32;2.67;;;2.47;;
11598;SDS011;5855;48.840;9.188;2024-02-26T01:33:58;3.92;;;2.22;;
11598;SDS011;5855;48.840;9.188;2024-02-26T01:36:26;3.10;;;2.25;;
11598;SDS011;5855;48.840;9.188;2024-02-26T01:38:53;2.72;;;2.40;;
11598;SDS011;5855;48.840;9.188;2024-02-26T01:41:20;3.75;;;3.00;;
11598;SDS011;5855;48.840;9.188;2024-02-26T01:43:47;3.17;;;2.30;;
11598;SDS011;5855;48.840;9.188;2024-02-26T01:46:14;2.60;;;2.40;;
11598;SDS011;5855;48.840;9.188;2024-02-26T01:48:43;2.10;;;1.90;;
11598;SDS011;5855;48.840;9.188;2024-02-26T01:51:12;2.05;;;1.77;;
11598;SDS011;5855;48.840;9.188;2024-02-26T01:53:42;2.88;;;1.67;;
11598;SDS011;5855;48.840;9.188;2024-02-26T01:56:10;2.22;;;1.85;;
11598;SDS011;5855;48.840;9.188;2024-02-26T01:58:37;2.55;;;2.00;;
11598;SDS011;5855;48.840;9.188;2024-02-26T02:01:04;2.95;;;1.95;;
11598;SDS011;5855;48.840;9.188;2024-02-26T02:03:31;2.65;;;1.95;;
11598;SDS011;5855;48.840;9.188;2024-02-26T02:05:59;2.95;;;1.58;;
11598;SDS011;5855;48.840;9.188;2024-02-26T02:08:27;2.40;;;1.70;;
11598;SDS011;5855;48.840;9.188;2024-02-26T02:10:54;1.83;;;1.65;;
11598;SDS011;5855;48.840;9.188;2024-02-26T02:13:20;1.95;;;1.70;;
11598;SDS011;5855;48.840;9.188;2024-02-26T02:15:47;1.98;;;1.45;;
11598;SDS011;5855;48.840;9.188;2024-02-26T02:18:14;2.70;;;2.00;;
11598;SDS011;5855;48.840;9.188;2024-02-26T02:20:42;1.70;;;1.58;;
11598;SDS011;5855;48.840;9.188;2024-02-26T02:23:09;1.80;;;1.70;;
11598;SDS011;5855;48.840;9.188;2024-02-26T02:25:36;2.72;;;1.90;;
11598;SDS011;5855;48.840;9.188;2024-02-26T02:28:03;2.10;;;1.90;;
11598;SDS011;5855;48.840;9.188;2024-02-26T02:30:32;2.78;;;2.08;;
11598;SDS011;5855;48.840;9.188;2024-02-26T02:33:00;1.88;;;1.77;;
11598;SDS011;5855;48.840;9.188;2024-02-26T02:35:27;2.00;;;1.85;;
11598;SDS011;5855;48.840;9.188;2024-02-26T02:37:56;2.05;;;1.85;;
11598;SDS011;5855;48.840;9.188;2024-02-26T02:40:24;3.60;;;2.22;;
11598;SDS011;5855;48.840;9.188;2024-02-26T02:42:50;3.47;;;2.10;;
11598;SDS011;5855;48.840;9.188;2024-02-26T02:45:17;2.95;;;2.30;;
11598;SDS011;5855;48.840;9.188;2024-02-26T02:47:44;3.35;;;2.13;;
11598;SDS011;5855;48.840;9.188;2024-02-26T02:50:11;3.05;;;2.13;;
11598;SDS011;5855;48.840;9.188;2024-02-26T02:52:38;3.40;;;2.13;;
11598;SDS011;5855;48.840;9.188;2024-02-26T02:55:06;2.38;;;2.05;;
11598;SDS011;5855;48.840;9.188;2024-02-26T02:57:33;3.00;;;1.88;;
11598;SDS011;5855;48.840;9.188;2024-02-26T03:00:06;3.22;;;1.88;;
11598;SDS011;5855;48.840;9.188;2024-02-26T03:02:33;2.50;;;2.30;;
11598;SDS011;5855;48.840;9.188;2024-02-26T03:05:00;2.55;;;2.28;;
11598;SDS011;5855;48.840;9.188;2024-02-26T03:07:27;3.58;;;2.30;;
11598;SDS011;5855;48.840;9.188;2024-02-26T03:09:54;4.22;;;2.22;;
11598;SDS011;5855;48.840;9.188;2024-02-26T03:12:22;2.50;;;2.00;;
11598;SDS011;5855;48.840;9.188;2024-02-26T03:14:49;2.60;;;2.00;;
11598;SDS011;5855;48.840;9.188;2024-02-26T03:17:16;3.17;;;2.20;;
11598;SDS011;5855;48.840;9.188;2024-02-26T03:19:44;2.15;;;1.83;;
11598;SDS011;5855;48.840;9.188;2024-02-26T03:22:12;2.67;;;1.98;;
11598;SDS011;5855;48.840;9.188;2024-02-26T03:24:39;2.40;;;1.90;;
11598;SDS011;5855;48.840;9.188;2024-02-26T03:27:06;2.42;;;2.10;;
11598;SDS011;5855;48.840;9.188;2024-02-26T03:29:35;2.13;;;1.80;;
11598;SDS011;5855;48.840;9.188;2024-02-26T03:32:03;2.35;;;1.92;;
11598;SDS011;5855;48.840;9.188;2024-02-26T03:34:30;3.13;;;2.10;;
11598;SDS011;5855;48.840;9.188;2024-02-26T03:36:59;2.25;;;2.03;;
11598;SDS011;5855;48.840;9.188;2024-02-26T03:39:26;2.35;;;2.10;;
11598;SDS011;5855;48.840;9.188;2024-02-26T03:41:53;2.40;;;1.85;;
11598;SDS011;5855;48.840;9.188;2024-02-26T03:44:20;2.47;;;1.90;;
11598;SDS011;5855;48.840;9.188;2024-02-26T03:46:48;2.20;;;1.83;;
11598;SDS011;5855;48.840;9.188;2024-02-26T03:49:15;1.80;;;1.70;;
11598;SDS011;5855;48.840;9.188;2024-02-26T03:51:43;2.00;;;1.67;;
11598;SDS011;5855;48.840;9.188;2024-02-26T03:54:09;1.92;;;1.60;;
11598;SDS011;5855;48.840;9.188;2024-02-26T03:56:36;2.85;;;1.90;;
11598;SDS011;5855;48.840;9.188;2024-02-26T03:59:03;3.60;;;1.92;;
11598;SDS011;5855;48.840;9.188;2024-02-26T04:01:31;1.92;;;1.70;;
11598;SDS011;5855;48.840;9.188;2024-02-26T04:03:59;2.00;;;1.80;;
11598;SDS011;5855;48.840;9.188;2024-02-26T04:06:26;2.00;;;1.80;;
11598;SDS011;5855;48.840;9.188;2024-02-26T04:08:53;3.35;;;1.75;;
11598;SDS011;5855;48.840;9.188;2024-02-26T04:11:20;1.90;;;1.70;;
11598;SDS011;5855;48.840;9.188;2024-02-26T04:13:47;2.08;;;1.88;;
11598;SDS011;5855;48.840;9.188;2024-02-26T04:16:18;2.05;;;1.85;;
11598;SDS011;5855;48.840;9.188;2024-02-26T04:18:44;1.85;;;1.60;;
11598;SDS011;5855;48.840;9.188;2024-02-26T04:21:13;2.17;;;1.70;;
11598;SDS011;5855;48.840;9.188;2024-02-26T04:23:40;2.03;;;1.55;;
11598;SDS011;5855;48.840;9.188;2024-02-26T04:26:07;1.70;;;1.60;;
11598;SDS011;5855;48.840;9.188;2024-02-26T04:28:34;1.70;;;1.60;;
11598;SDS011;5855;48.840;9.188;2024-02-26T04:31:01;3.22;;;1.85;;
11598;SDS011;5855;48.840;9.188;2024-02-26T04:33:28;1.92;;;1.60;;
11598;SDS011;5855;48.840;9.188;2024-02-26T04:35:55;1.75;;;1.50;;
11598;SDS011;5855;48.840;9.188;2024-02-26T04:38:23;1.70;;;1.60;;
11598;SDS011;5855;48.840;9.188;2024-02-26T04:40:50;2.80;;;1.70;;
11598;SDS011;5855;48.840;9.188;2024-02-26T04:43:17;1.63;;;1.52;;
11598;SDS011;5855;48.840;9.188;2024-02-26T04:45:43;2.58;;;1.70;;
11598;SDS011;5855;48.840;9.188;2024-02-26T04:48:10;1.52;;;1.42;;
11598;SDS011;5855;48.840;9.188;2024-02-26T04:50:37;2.58;;;1.75;;
11598;SDS011;5855;48.840;9.188;2024-02-26T04:53:04;1.70;;;1.60;;
11598;SDS011;5855;48.840;9.188;2024-02-26T04:55:32;1.58;;;1.48;;
11598;SDS011;5855;48.840;9.188;2024-02-26T04:57:59;1.98;;;1.60;;
11598;SDS011;5855;48.840;9.188;2024-02-26T05:00:26;1.65;;;1.50;;
11598;SDS011;5855;48.840;9.188;2024-02-26T05:02:53;1.70;;;1.60;;
11598;SDS011;5855;48.840;9.188;2024-02-26T05:05:20;2.03;;;1.50;;
11598;SDS011;5855;48.840;9.188;2024-02-26T05:07:47;2.03;;;1.58;;
11598;SDS011;5855;48.840;9.188;2024-02-26T05:10:14;2.22;;;1.90;;
11598;SDS011;5855;48.840;9.188;2024-02-26T05:12:43;1.80;;;1.42;;
11598;SDS011;5855;48.840;9.188;2024-02-26T05:15:10;1.98;;;1.77;;
11598;SDS011;5855;48.840;9.188;2024-02-26T05:17:40;1.98;;;1.50;;
11598;SDS011;5855;48.840;9.188;2024-02-26T05:20:08;2.58;;;1.88;;
11598;SDS011;5855;48.840;9.188;2024-02-26T05:22:35;1.95;;;1.48;;
11598;SDS011;5855;48.840;9.188;2024-02-26T05:25:03;1.80;;;1.55;;
11598;SDS011;5855;48.840;9.188;2024-02-26T05:27:30;1.73;;;1.58;;
11598;SDS011;5855;48.840;9.188;2024-02-26T05:29:58;1.90;;;1.75;;
11598;SDS011;5855;48.840;9.188;2024-02-26T05:32:25;2.75;;;1.50;;
11598;SDS011;5855;48.840;9.188;2024-02-26T05:34:52;3.05;;;1.75;;
11598;SDS011;5855;48.840;9.188;2024-02-26T05:37:19;1.70;;;1.60;;
11598;SDS011;5855;48.840;9.188;2024-02-26T05:39:46;2.25;;;1.80;;
11598;SDS011;5855;48.840;9.188;2024-02-26T05:42:12;2.10;;;1.50;;
11598;SDS011;5855;48.840;9.188;2024-02-26T05:44:39;2.10;;;1.90;;
11598;SDS011;5855;48.840;9.188;2024-02-26T05:47:08;1.60;;;1.50;;
11598;SDS011;5855;48.840;9.188;2024-02-26T05:49:35;1.60;;;1.50;;
11598;SDS011;5855;48.840;9.188;2024-02-26T05:52:01;3.90;;;1.70;;
11598;SDS011;5855;48.840;9.188;2024-02-26T05:54:31;1.88;;;1.73;;
11598;SDS011;5855;48.840;9.188;2024-02-26T05:56:58;3.05;;;1.75;;
11598;SDS011;5855;48.840;9.188;2024-02-26T05:59:25;1.92;;;1.70;;
11598;SDS011;5855;48.840;9.188;2024-02-26T06:01:52;1.90;;;1.63;;
11598;SDS011;5855;48.840;9.188;2024-02-26T06:04:20;2.53;;;2.10;;
11598;SDS011;5855;48.840;9.188;2024-02-26T06:06:47;3.03;;;2.00;;
11598;SDS011;5855;48.840;9.188;2024-02-26T06:09:15;2.35;;;2.13;;
11598;SDS011;5855;48.840;9.188;2024-02-26T06:11:48;2.28;;;2.00;;
11598;SDS011;5855;48.840;9.188;2024-02-26T06:14:15;2.95;;;2.08;;
11598;SDS011;5855;48.840;9.188;2024-02-26T06:16:43;2.22;;;1.92;;
11598;SDS011;5855;48.840;9.188;2024-02-26T06:19:10;3.38;;;2.10;;
11598;SDS011;5855;48.840;9.188;2024-02-26T06:21:38;2.20;;;2.00;;
11598;SDS011;5855;48.840;9.188;2024-02-26T06:24:05;3.65;;;1.92;;
11598;SDS011;5855;48.840;9.188;2024-02-26T06:26:32;1.90;;;1.80;;
11598;SDS011;5855;48.840;9.188;2024-02-26T06:28:59;2.38;;;2.17;;
11598;SDS011;5855;48.840;9.188;2024-02-26T06:31:27;2.35;;;2.13;;
11598;SDS011;5855;48.840;9.188;2024-02-26T06:33:54;2.35;;;2.10;;
11598;SDS011;5855;48.840;9.188;2024-02-26T06:36:21;2.13;;;1.92;;
11598;SDS011;5855;48.840;9.188;2024-02-26T06:38:50;2.42;;;2.22;;
11598;SDS011;5855;48.840;9.188;2024-02-26T06:41:19;2.65;;;2.13;;
11598;SDS011;5855;48.840;9.188;2024-02-26T06:43:45;2.28;;;2.05;;
11598;SDS011;5855;48.840;9.188;2024-02-26T06:46:15;2.67;;;2.30;;
11598;SDS011;5855;48.840;9.188;2024-02-26T06:48:42;5.07;;;2.13;;
11598;SDS011;5855;48.840;9.188;2024-02-26T06:51:09;2.65;;;2.30;;
11598;SDS011;5855;48.840;9.188;2024-02-26T06:53:36;3.40;;;2.53;;
11598;SDS011;5855;48.840;9.188;2024-02-26T06:56:06;3.08;;;2.60;;
11598;SDS011;5855;48.840;9.188;2024-02-26T06:58:33;3.30;;;2.67;;
11598;SDS011;5855;48.840;9.188;2024-02-26T07:01:00;5.20;;;2.67;;
11598;SDS011;5855;48.840;9.188;2024-02-26T07:03:27;3.33;;;2.90;;
11598;SDS011;5855;48.840;9.188;2024-02-26T07:05:55;3.05;;;2.75;;
11598;SDS011;5855;48.840;9.188;2024-02-26T07:08:22;3.47;;;2.83;;
11598;SDS011;5855;48.840;9.188;2024-02-26T07:10:49;2.40;;;2.20;;
11598;SDS011;5855;48.840;9.188;2024-02-26T07:13:18;3.17;;;2.88;;
11598;SDS011;5855;48.840;9.188;2024-02-26T07:15:46;3.58;;;3.00;;
11598;SDS011;5855;48.840;9.188;2024-02-26T07:18:12;4.88;;;2.90;;
11598;SDS011;5855;48.840;9.188;2024-02-26T07:20:39;3.80;;;3.05;;
11598;SDS011;5855;48.840;9.188;2024-02-26T07:23:06;3.53;;;2.85;;
11598;SDS011;5855;48.840;9.188;2024-02-26T07:25:33;3.17;;;2.85;;
11598;SDS011;5855;48.840;9.188;2024-02-26T07:28:00;3.33;;;2.90;;
11598;SDS011;5855;48.840;9.188;2024-02-26T07:30:28;3.10;;;2.60;;
11598;SDS011;5855;48.840;9.188;2024-02-26T07:32:55;3.05;;;2.67;;
11598;SDS011;5855;48.840;9.188;2024-02-26T07:35:23;3.47;;;2.78;;
11598;SDS011;5855;48.840;9.188;2024-02-26T07:37:50;3.00;;;2.70;;
11598;SDS011;5855;48.840;9.188;2024-02-26T07:40:17;2.75;;;2.50;;
11598;SDS011;5855;48.840;9.188;2024-02-26T07:42:52;3.60;;;2.65;;
11598;SDS011;5855;48.840;9.188;2024-02-26T07:45:19;2.75;;;2.55;;
11598;SDS011;5855;48.840;9.188;2024-02-26T07:47:50;2.70;;;2.50;;
11598;SDS011;5855;48.840;9.188;2024-02-26T07:50:17;3.50;;;2.58;;
11598;SDS011;5855;48.840;9.188;2024-02-26T07:52:47;4.60;;;3.00;;
11598;SDS011;5855;48.840;9.188;2024-02-26T07:55:23;3.75;;;2.60;;
11598;SDS011;5855;48.840;9.188;2024-02-26T07:57:53;3.20;;;2.60;;
11598;SDS011;5855;48.840;9.188;2024-02-26T08:00:21;3.47;;;2.50;;
11598;SDS011;5855;48.840;9.188;2024-02-26T08:02:47;2.88;;;2.50;;
11598;SDS011;5855;48.840;9.188;2024-02-26T08:05:18;2.90;;;2.42;;
11598;SDS011;5855;48.840;9.188;2024-02-26T08:07:45;3.28;;;2.97;;
11598;SDS011;5855;48.840;9.188;2024-02-26T08:10:12;3.50;;;2.95;;
11598;SDS011;5855;48.840;9.188;2024-02-26T08:12:49;4.20;;;2.92;;
11598;SDS011;5855;48.840;9.188;2024-02-26T08:15:17;4.90;;;2.90;;
11598;SDS011;5855;48.840;9.188;2024-02-26T08:17:43;4.47;;;3.25;;
11598;SDS011;5855;48.840;9.188;2024-02-26T08:20:14;4.85;;;3.15;;
11598;SDS011;5855;48.840;9.188;2024-02-26T08:22:41;4.32;;;3.60;;
11598;SDS011;5855;48.840;9.188;2024-02-26T08:25:08;4.43;;;3.30;;
11598;SDS011;5855;48.840;9.188;2024-02-26T08:27:35;3.75;;;2.72;;
11598;SDS011;5855;48.840;9.188;2024-02-26T08:30:03;3.88;;;3.40;;
11598;SDS011;5855;48.840;9.188;2024-02-26T08:32:31;4.95;;;3.88;;
11598;SDS011;5855;48.840;9.188;2024-02-26T08:34:57;4.47;;;3.30;;
11598;SDS011;5855;48.840;9.188;2024-02-26T08:37:26;3.60;;;3.30;;
11598;SDS011;5855;48.840;9.188;2024-02-26T08:39:53;3.08;;;2.78;;
11598;SDS011;5855;48.840;9.188;2024-02-26T08:42:19;4.65;;;3.00;;
11598;SDS011;5855;48.840;9.188;2024-02-26T08:44:49;5.18;;;3.20;;
11598;SDS011;5855;48.840;9.188;2024-02-26T08:47:18;4.22;;;2.70;;
11598;SDS011;5855;48.840;9.188;2024-02-26T08:49:45;3.22;;;2.55;;
11598;SDS011;5855;48.840;9.188;2024-02-26T08:52:12;5.55;;;2.60;;
11598;SDS011;5855;48.840;9.188;2024-02-26T08:54:42;3.75;;;2.50;;
11598;SDS011;5855;48.840;9.188;2024-02-26T08:57:08;2.90;;;2.42;;
11598;SDS011;5855;48.840;9.188;2024-02-26T08:59:35;3.53;;;2.60;;
11598;SDS011;5855;48.840;9.188;2024-02-26T09:02:02;4.30;;;2.65;;
11598;SDS011;5855;48.840;9.188;2024-02-26T09:04:29;3.45;;;2.58;;
11598;SDS011;5855;48.840;9.188;2024-02-26T09:06:57;3.40;;;2.55;;
11598;SDS011;5855;48.840;9.188;2024-02-26T09:09:24;4.13;;;2.80;;
11598;SDS011;5855;48.840;9.188;2024-02-26T09:11:52;3.38;;;2.70;;
11598;SDS011;5855;48.840;9.188;2024-02-26T09:14:20;3.65;;;2.60;;
11598;SDS011;5855;48.840;9.188;2024-02-26T09:16:47;2.65;;;2.45;;
11598;SDS011;5855;48.840;9.188;2024-02-26T09:19:14;4.50;;;2.47;;
11598;SDS011;5855;48.840;9.188;2024-02-26T09:21:42;3.30;;;2.65;;
11598;SDS011;5855;48.840;9.188;2024-02-26T09:24:09;3.00;;;2.60;;
11598;SDS011;5855;48.840;9.188;2024-02-26T09:26:36;2.60;;;2.40;;
11598;SDS011;5855;48.840;9.188;2024-02-26T09:29:04;3.22;;;2.50;;
11598;SDS011;5855;48.840;9.188;2024-02-26T09:31:33;2.78;;;2.35;;
11598;SDS011;5855;48.840;9.188;2024-02-26T09:34:00;2.55;;;2.10;;
11598;SDS011;5855;48.840;9.188;2024-02-26T09:36:27;2.75;;;2.03;;
11598;SDS011;5855;48.840;9.188;2024-02-26T09:38:54;2.50;;;2.13;;
11598;SDS011;5855;48.840;9.188;2024-02-26T09:41:20;3.08;;;2.00;;
11598;SDS011;5855;48.840;9.188;2024-02-26T09:43:48;3.13;;;2.28;;
11598;SDS011;5855;48.840;9.188;2024-02-26T09:46:20;2.38;;;2.05;;
11598;SDS011;5855;48.840;9.188;2024-02-26T09:48:47;2.33;;;2.10;;
11598;SDS011;5855;48.840;9.188;2024-02-26T09:51:14;2.35;;;2.10;;
11598;SDS011;5855;48.840;9.188;2024-02-26T09:53:43;4.25;;;2.33;;
11598;SDS011;5855;48.840;9.188;2024-02-26T09:56:11;2.25;;;1.98;;
11598;SDS011;5855;48.840;9.188;2024-02-26T09:58:39;2.22;;;2.00;;
11598;SDS011;5855;48.840;9.188;2024-02-26T10:01:09;2.58;;;2.10;;
11598;SDS011;5855;48.840;9.188;2024-02-26T10:03:40;2.50;;;2.17;;
11598;SDS011;5855;48.840;9.188;2024-02-26T10:06:09;3.03;;;2.20;;
11598;SDS011;5855;48.840;9.188;2024-02-26T10:08:36;3.03;;;2.30;;
11598;SDS011;5855;48.840;9.188;2024-02-26T10:11:04;2.58;;;2.35;;
11598;SDS011;5855;48.840;9.188;2024-02-26T10:13:33;3.00;;;2.30;;
11598;SDS011;5855;48.840;9.188;2024-02-26T10:16:01;4.18;;;2.60;;
11598;SDS011;5855;48.840;9.188;2024-02-26T10:21:16;3.45;;;2.33;;
11598;SDS011;5855;48.840;9.188;2024-02-26T10:23:43;3.38;;;2.10;;
11598;SDS011;5855;48.840;9.188;2024-02-26T10:26:11;3.53;;;2.30;;
11598;SDS011;5855;48.840;9.188;2024-02-26T10:28:38;2.90;;;2.30;;
11598;SDS011;5855;48.840;9.188;2024-02-26T10:31:06;2.30;;;2.10;;
11598;SDS011;5855;48.840;9.188;2024-02-26T10:33:33;4.15;;;2.05;;
11598;SDS011;5855;48.840;9.188;2024-02-26T10:36:03;2.15;;;1.95;;
11598;SDS011;5855;48.840;9.188;2024-02-26T10:38:31;2.30;;;2.10;;
11598;SDS011;5855;48.840;9.188;2024-02-26T10:40:59;2.50;;;1.95;;
11598;SDS011;5855;48.840;9.188;2024-02-26T10:43:27;2.17;;;1.90;;
11598;SDS011;5855;48.840;9.188;2024-02-26T10:45:54;2.72;;;1.95;;
11598;SDS011;5855;48.840;9.188;2024-02-26T10:48:21;2.40;;;2.00;;
11598;SDS011;5855;48.840;9.188;2024-02-26T10:50:48;2.30;;;2.00;;
11598;SDS011;5855;48.840;9.188;2024-02-26T10:53:19;2.85;;;1.95;;
11598;SDS011;5855;48.840;9.188;2024-02-26T10:55:48;2.30;;;2.10;;
11598;SDS011;5855;48.840;9.188;2024-02-26T10:58:18;3.45;;;1.90;;
11598;SDS011;5855;48.840;9.188;2024-02-26T11:00:45;2.45;;;1.70;;
11598;SDS011;5855;48.840;9.188;2024-02-26T11:03:16;2.70;;;1.52;;
11598;SDS011;5855;48.840;9.188;2024-02-26T11:05:47;1.60;;;1.50;;
11598;SDS011;5855;48.840;9.188;2024-02-26T11:08:14;2.63;;;1.38;;
11598;SDS011;5855;48.840;9.188;2024-02-26T11:10:44;1.50;;;1.33;;
11598;SDS011;5855;48.840;9.188;2024-02-26T11:13:14;1.63;;;1.52;;
11598;SDS011;5855;48.840;9.188;2024-02-26T11:15:46;2.08;;;1.50;;
11598;SDS011;5855;48.840;9.188;2024-02-26T11:18:14;2.42;;;1.50;;
11598;SDS011;5855;48.840;9.188;2024-02-26T11:20:42;5.55;;;1.52;;
11598;SDS011;5855;48.840;9.188;2024-02-26T11:23:10;2.80;;;1.80;;
11598;SDS011;5855;48.840;9.188;2024-02-26T11:25:38;1.38;;;1.27;;
11598;SDS011;5855;48.840;9.188;2024-02-26T11:28:06;1.90;;;1.23;;
11598;SDS011;5855;48.840;9.188;2024-02-26T11:30:38;2.50;;;1.52;;
11598;SDS011;5855;48.840;9.188;2024-02-26T11:33:07;1.50;;;1.40;;
11598;SDS011;5855;48.840;9.188;2024-02-26T11:35:37;3.03;;;1.30;;
11598;SDS011;5855;48.840;9.188;2024-02-26T11:38:04;1.40;;;1.30;;
11598;SDS011;5855;48.840;9.188;2024-02-26T11:40:32;1.23;;;1.13;;
11598;SDS011;5855;48.840;9.188;2024-02-26T11:43:05;2.85;;;1.50;;
11598;SDS011;5855;48.840;9.188;2024-02-26T11:45:50;1.38;;;1.27;;
11598;SDS011;5855;48.840;9.188;2024-02-26T11:48:21;1.27;;;1.20;;
11598;SDS011;5855;48.840;9.188;2024-02-26T11:50:50;1.30;;;1.20;;
11598;SDS011;5855;48.840;9.188;2024-02-26T11:53:21;2.15;;;1.30;;
11598;SDS011;5855;48.840;9.188;2024-02-26T11:58:40;1.50;;;1.40;;
11598;SDS011;5855;48.840;9.188;2024-02-26T12:04:21;1.50;;;1.40;;
11598;SDS011;5855;48.840;9.188;2024-02-26T12:06:51;1.58;;;1.48;;
11598;SDS011;5855;48.840;9.188;2024-02-26T12:09:31;1.27;;;1.20;;
11598;SDS011;5855;48.840;9.188;2024-02-26T12:12:03;2.13;;;1.20;;
11598;SDS011;5855;48.840;9.188;2024-02-26T12:14:36;1.73;;;1.52;;
11598;SDS011;5855;48.840;9.188;2024-02-26T12:17:07;2.55;;;1.45;;
11598;SDS011;5855;48.840;9.188;2024-02-26T12:19:45;2.53;;;1.40;;
11598;SDS011;5855;48.840;9.188;2024-02-26T12:22:13;1.50;;;1.40;;
11598;SDS011;5855;48.840;9.188;2024-02-26T12:24:40;1.52;;;1.20;;
11598;SDS011;5855;48.840;9.188;2024-02-26T12:27:07;1.33;;;1.20;;
11598;SDS011;5855;48.840;9.188;2024-02-26T12:29:36;1.30;;;1.20;;
11598;SDS011;5855;48.840;9.188;2024-02-26T12:32:04;1.67;;;1.40;;
11598;SDS011;5855;48.840;9.188;2024-02-26T12:34:31;2.70;;;1.40;;
11598;SDS011;5855;48.840;9.188;2024-02-26T12:36:59;1.75;;;1.40;;
11598;SDS011;5855;48.840;9.188;2024-02-26T12:39:26;1.30;;;1.20;;
11598;SDS011;5855;48.840;9.188;2024-02-26T12:41:53;1.90;;;1.40;;
11598;SDS011;5855;48.840;9.188;2024-02-26T12:44:24;1.95;;;1.40;;
11598;SDS011;5855;48.840;9.188;2024-02-26T12:47:00;1.50;;;1.40;;
11598;SDS011;5855;48.840;9.188;2024-02-26T12:49:28;1.65;;;1.40;;
11598;SDS011;5855;48.840;9.188;2024-02-26T12:51:54;2.15;;;1.38;;
11598;SDS011;5855;48.840;9.188;2024-02-26T12:54:26;1.98;;;1.27;;
11598;SDS011;5855;48.840;9.188;2024-02-26T12:56:57;2.00;;;1.30;;
11598;SDS011;5855;48.840;9.188;2024-02-26T12:59:25;2.50;;;1.50;;
11598;SDS011;5855;48.840;9.188;2024-02-26T13:01:53;1.73;;;1.27;;
11598;SDS011;5855;48.840;9.188;2024-02-26T13:04:21;1.30;;;1.20;;
11598;SDS011;5855;48.840;9.188;2024-02-26T13:06:48;1.83;;;1.30;;
11598;SDS011;5855;48.840;9.188;2024-02-26T13:09:15;2.92;;;1.13;;
11598;SDS011;5855;48.840;9.188;2024-02-26T13:11:52;1.42;;;1.30;;
11598;SDS011;5855;48.840;9.188;2024-02-26T13:14:21;1.30;;;1.20;;
11598;SDS011;5855;48.840;9.188;2024-02-26T13:16:58;2.35;;;1.33;;
11598;SDS011;5855;48.840;9.188;2024-02-26T13:19:26;1.50;;;1.40;;
11598;SDS011;5855;48.840;9.188;2024-02-26T13:21:53;1.35;;;1.25;;
11598;SDS011;5855;48.840;9.188;2024-02-26T13:24:21;1.30;;;1.20;;
11598;SDS011;5855;48.840;9.188;2024-02-26T13:26:53;1.33;;;1.23;;
11598;SDS011;5855;48.840;9.188;2024-02-26T13:29:20;1.20;;;1.10;;
11598;SDS011;5855;48.840;9.188;2024-02-26T13:31:47;1.65;;;1.55;;
11598;SDS011;5855;48.840;9.188;2024-02-26T13:34:23;1.30;;;1.20;;
11598;SDS011;5855;48.840;9.188;2024-02-26T13:36:55;1.40;;;1.20;;
11598;SDS011;5855;48.840;9.188;2024-02-26T13:39:25;3.22;;;1.33;;
11598;SDS011;5855;48.840;9.188;2024-02-26T13:41:53;2.10;;;1.27;;
11598;SDS011;5855;48.840;9.188;2024-02-26T13:44:22;2.30;;;1.45;;
11598;SDS011;5855;48.840;9.188;2024-02-26T13:46:53;1.55;;;1.15;;
11598;SDS011;5855;48.840;9.188;2024-02-26T13:49:24;1.20;;;1.10;;
11598;SDS011;5855;48.840;9.188;2024-02-26T13:51:53;3.45;;;1.20;;
11598;SDS011;5855;48.840;9.188;2024-02-26T13:54:20;1.40;;;1.00;;
11598;SDS011;5855;48.840;9.188;2024-02-26T13:56:50;4.05;;;1.08;;
11598;SDS011;5855;48.840;9.188;2024-02-26T13:59:19;0.93;;;0.93;;
11598;SDS011;5855;48.840;9.188;2024-02-26T14:01:52;1.92;;;1.40;;
11598;SDS011;5855;48.840;9.188;2024-02-26T14:04:20;1.55;;;1.05;;
11598;SDS011;5855;48.840;9.188;2024-02-26T14:06:50;1.30;;;1.20;;
11598;SDS011;5855;48.840;9.188;2024-02-26T14:09:20;2.83;;;2.50;;
11598;SDS011;5855;48.840;9.188;2024-02-26T14:11:49;1.58;;;1.48;;
11598;SDS011;5855;48.840;9.188;2024-02-26T14:14:16;1.50;;;1.40;;
11598;SDS011;5855;48.840;9.188;2024-02-26T14:16:52;0.70;;;0.70;;
11598;SDS011;5855;48.840;9.188;2024-02-26T14:19:19;0.98;;;0.70;;
11598;SDS011;5855;48.840;9.188;2024-02-26T14:21:46;0.75;;;0.65;;
11598;SDS011;5855;48.840;9.188;2024-02-26T14:24:37;0.90;;;0.90;;
11598;SDS011;5855;48.840;9.188;2024-02-26T14:27:04;0.70;;;0.70;;
11598;SDS011;5855;48.840;9.188;2024-02-26T14:29:32;0.60;;;0.60;;
11598;SDS011;5855;48.840;9.188;2024-02-26T14:32:02;0.95;;;0.88;;
11598;SDS011;5855;48.840;9.188;2024-02-26T14:34:32;1.00;;;0.70;;
11598;SDS011;5855;48.840;9.188;2024-02-26T14:37:01;0.57;;;0.57;;
11598;SDS011;5855;48.840;9.188;2024-02-26T14:39:28;0.40;;;0.40;;
11598;SDS011;5855;48.840;9.188;2024-02-26T14:41:57;0.43;;;0.43;;
11598;SDS011;5855;48.840;9.188;2024-02-26T14:44:25;0.43;;;0.43;;
11598;SDS011;5855;48.840;9.188;2024-02-26T14:46:53;0.95;;;0.75;;
11598;SDS011;5855;48.840;9.188;2024-02-26T14:49:19;0.43;;;0.30;;
11598;SDS011;5855;48.840;9.188;2024-02-26T14:51:46;0.52;;;0.52;;
11598;SDS011;5855;48.840;9.188;2024-02-26T14:54:13;0.40;;;0.40;;
11598;SDS011;5855;48.840;9.188;2024-02-26T14:56:40;0.77;;;0.60;;
11598;SDS011;5855;48.840;9.188;2024-02-26T14:59:09;0.43;;;0.43;;
11598;SDS011;5855;48.840;9.188;2024-02-26T15:01:39;0.93;;;0.50;;
11598;SDS011;5855;48.840;9.188;2024-02-26T15:04:06;0.55;;;0.55;;
11598;SDS011;5855;48.840;9.188;2024-02-26T15:06:33;1.52;;;0.80;;
11598;SDS011;5855;48.840;9.188;2024-02-26T15:09:01;1.00;;;0.68;;
11598;SDS011;5855;48.840;9.188;2024-02-26T15:11:29;0.57;;;0.50;;
11598;SDS011;5855;48.840;9.188;2024-02-26T15:13:56;0.40;;;0.40;;